Latest Weather Observations for Fitzroy Crossing

IDW60801

Issued at 6:03 pm WST Tuesday 21 November 2017 (issued every 30 minutes, with the page automatically refreshed every 10 minutes)

About weather observations | Map of weather stations | Latest weather observations for WA | Other Formats
Station Details ID: 003093 Name: FITZROY CROSSING AERO Lat: -18.18 Lon: 125.56 Height: 114.5 m
Data from the previous 72 hours. | See also: Recent months at Fitzroy Crossing
Date/Time
WST
Temp
°C
App
Temp
°C
Dew
Point
°C
Rel
Hum
%
Delta-T
°C
Wind Press
QNH
hPa
Press
MSL
hPa
Rain since
9am
mm
Dir  Spd
km/h
Gust
km/h
Spd
kts
Gust
kts
21/06:00pm 36.9 37.0 18.4 33 12.2 WNW 15 20 8 11 1003.5 1002.6 0.0
21/05:30pm 38.3 38.1 17.7 30 13.5 W 15 20 8 11 1003.3 1002.4 0.0
21/05:00pm 39.0 39.2 17.7 28 14.0 W 13 24 7 13 1003.3 1002.4 0.0
21/04:30pm 39.4 40.2 18.1 29 14.1 WSW 11 20 6 11 1003.2 1002.3 0.0
21/04:00pm 39.3 38.3 18.0 29 14.1 W 20 28 11 15 1003.1 1002.2 0.0
21/03:30pm 40.1 40.7 18.7 29 14.3 WSW 13 24 7 13 1003.1 1002.2 0.0
21/03:00pm 39.0 39.1 18.3 30 13.7 W 15 24 8 13 1003.5 1002.6 0.0
21/02:30pm 39.0 40.1 18.8 30 13.5 WSW 11 24 6 13 1003.9 1003.0 0.0
21/02:00pm 40.0 40.4 19.1 29 14.0 WSW 15 30 8 16 1004.3 1003.4 0.0
21/01:30pm 38.3 38.3 18.2 31 13.3 WSW 15 24 8 13 1005.1 1004.1 0.0
21/01:00pm 38.9 39.4 19.2 31 13.2 W 15 24 8 13 1005.5 1004.5 0.0
21/12:30pm 38.0 38.7 18.9 32 12.7 W 13 26 7 14 1005.9 1004.9 0.0
21/12:00pm 38.1 37.5 18.5 31 13.0 W 19 33 10 18 1006.5 1005.5 0.0
21/11:30am 38.0 38.0 18.9 32 12.7 W 17 30 9 16 1007.2 1006.2 0.0
21/11:00am 36.9 36.5 18.9 34 12.0 W 19 30 10 16 1007.6 1006.6 0.0
21/10:30am 36.0 35.6 19.0 36 11.3 WSW 19 30 10 16 1008.1 1007.1 0.0
21/10:00am 35.1 34.4 18.2 36 11.1 W 19 32 10 17 1008.7 1007.7 0.0
21/09:30am 35.3 35.1 18.4 37 11.1 W 17 30 9 16 1009.2 1008.3 0.0
21/09:00am 33.8 33.1 18.3 39 10.1 WNW 19 30 10 16 1009.6 1008.7 0.0
21/08:30am 33.2 33.2 19.7 45 9.0 WNW 19 28 10 15 1009.9 1009.0 0.0
21/08:00am 32.0 32.1 19.9 48 8.0 NW 19 26 10 14 1009.8 1008.9 0.0
21/07:30am 32.2 32.5 20.5 50 7.8 NNW 19 30 10 16 1009.8 1008.9 0.0
21/07:00am 30.6 31.2 20.2 53 6.9 N 17 24 9 13 1009.9 1009.0 0.0
21/06:30am 29.4 30.4 20.3 58 6.0 N 15 19 8 10 1010.0 1009.1 0.0
21/06:00am 28.0 29.0 20.3 63 5.1 N 15 20 8 11 1009.8 1008.9 0.0
21/05:30am 27.0 27.6 20.3 66 4.4 N 17 22 9 12 1009.3 1008.4 0.0
21/05:00am 27.1 27.1 19.7 64 4.8 N 19 24 10 13 1008.9 1008.0 0.0
21/04:30am 27.2 28.4 20.0 64 4.7 NNE 13 22 7 12 1008.6 1007.6 0.0
21/04:00am 27.8 27.6 19.8 61 5.2 N 20 24 11 13 1008.2 1007.2 0.0
21/03:30am 28.3 28.6 20.3 62 5.3 N 19 26 10 14 1008.0 1007.0 0.0
21/03:00am 30.0 31.3 21.7 61 5.6 NW 17 24 9 13 1007.9 1006.9 0.0
21/02:30am 29.7 30.8 21.9 63 5.3 NNW 19 26 10 14 1007.6 1006.6 0.0
21/02:00am 30.0 31.7 21.7 61 5.6 NNW 15 19 8 10 1007.7 1006.7 0.0
21/01:30am 30.5 33.1 21.9 60 5.8 WNW 11 17 6 9 1007.6 1006.6 0.0
21/01:00am 30.5 34.5 21.3 58 6.2 N 2 9 1 5 1007.2 1006.2 0.0
21/12:30am 30.8 32.0 20.7 55 6.7 NW 15 20 8 11 1006.8 1005.8 0.0
21/12:00am 31.4 31.7 20.4 52 7.3 NW 19 22 10 12 1006.7 1005.7 0.0
 
Date/Time
WST
Temp
°C
App
Temp
°C
Dew
Point
°C
Rel
Hum
%
Delta-T
°C
Wind Press
QNH
hPa
Press
MSL
hPa
Rain since
9am
mm
Dir  Spd
km/h
Gust
km/h
Spd
kts
Gust
kts
20/11:30pm 31.7 31.4 20.3 50 7.6 NW 22 30 12 16 1006.5 1005.5 0.0
20/11:00pm 32.2 31.4 20.1 48 8.1 WNW 24 32 13 17 1006.6 1005.6 0.0
20/10:30pm 32.7 31.7 19.6 46 8.7 WNW 24 32 13 17 1006.9 1005.9 0.0
20/10:00pm 33.2 31.2 20.0 45 8.8 W 30 39 16 21 1007.4 1006.4 0.0
20/09:30pm 33.8 32.1 19.8 43 9.3 WNW 28 35 15 19 1007.4 1006.4 0.0
20/09:00pm 34.4 34.5 18.4 38 10.5 NW 15 20 8 11 1007.2 1006.2 0.0
20/08:30pm 34.6 34.8 18.6 38 10.5 WNW 15 17 8 9 1007.1 1006.1 0.0
20/08:00pm 34.3 35.0 18.8 40 10.2 W 13 15 7 8 1006.8 1005.8 0.0
20/07:30pm 34.6 35.4 18.2 37 10.7 WNW 11 15 6 8 1006.3 1005.3 0.0
20/07:00pm 35.1 35.0 17.8 36 11.3 NW 15 19 8 10 1005.8 1004.8 0.0
20/06:30pm 36.0 34.5 17.7 34 11.9 NW 22 28 12 15 1005.4 1004.4 0.0
20/06:00pm 37.7 38.0 16.1 28 13.9 SW 9 13 5 7 1005.0 1004.0 0.0
20/05:30pm 38.4 38.3 16.1 27 14.3 SSW 11 17 6 9 1004.2 1003.3 0.0
20/05:00pm 39.7 40.3 15.3 23 15.6 SE 6 11 3 6 1003.9 1003.0 0.0
20/04:30pm 40.1 41.6 15.7 24 15.7 S 2 9 1 5 1003.7 1002.8 0.0
20/04:00pm 39.8 38.7 15.4 23 15.6 S 15 20 8 11 1003.9 1003.0 0.0
20/03:30pm 40.1 40.4 15.0 23 16.0 SE 7 17 4 9 1004.1 1003.2 0.0
20/03:00pm 40.4 41.2 15.9 23 15.8 N 6 15 3 8 1004.3 1003.4 0.0
20/02:30pm 40.4 40.9 16.6 25 15.5 E 9 15 5 8 1004.8 1003.8 0.0
20/02:00pm 39.6 40.2 15.9 25 15.3 ENE 7 13 4 7 1005.4 1004.4 0.0
20/01:30pm 39.8 39.6 16.7 26 15.0 SSE 13 24 7 13 1005.9 1004.9 0.0
20/01:00pm 39.2 39.0 15.6 25 15.1 SE 11 20 6 11 1006.4 1005.4 0.0
20/12:30pm 39.7 40.3 17.8 28 14.4 NW 11 32 6 17 1006.8 1005.8 0.0
20/12:00pm 37.0 37.3 17.1 31 12.9 SW 11 20 6 11 1007.7 1006.7 0.0
20/11:30am 38.2 38.8 17.6 30 13.5 SSE 11 20 6 11 1008.0 1007.0 0.0
20/11:00am 37.4 38.1 17.9 31 12.8 S 11 22 6 12 1008.5 1007.5 0.0
20/10:30am 37.2 38.6 18.7 33 12.2 SSW 9 24 5 13 1009.1 1008.2 0.0
20/10:00am 36.8 37.0 19.3 36 11.7 WSW 17 32 9 17 1009.6 1008.7 0.0
20/09:30am 35.0 35.0 19.0 39 10.6 SW 17 28 9 15 1009.9 1009.0 0.0
20/09:00am 34.5 35.0 19.3 40 10.1 W 15 24 8 13 1010.2 1009.3 0.0
20/08:30am 33.7 35.4 20.1 44 9.1 W 11 19 6 10 1010.4 1009.5 0.0
20/08:00am 32.7 35.5 21.5 51 7.6 SSE 9 11 5 6 1010.4 1009.5 0.0
20/07:30am 31.2 35.0 20.2 52 7.3 CALM 0 0 0 0 1010.5 1009.6 0.0
20/07:00am 30.4 34.7 21.2 58 6.2 CALM 0 0 0 0 1010.5 1009.6 0.0
20/06:30am 28.9 33.2 21.1 62 5.2 CALM 0 0 0 0 1010.2 1009.3 0.0
20/06:00am 27.5 31.6 20.8 67 4.4 CALM 0 0 0 0 1009.8 1008.9 0.0
20/05:30am 26.3 30.8 21.5 75 3.2 CALM 0 0 0 0 1009.6 1008.7 0.0
20/05:00am 25.4 29.7 21.1 77 2.9 CALM 0 0 0 0 1009.3 1008.4 0.0
20/04:30am 25.6 29.9 21.1 76 3.0 CALM 0 0 0 0 1009.2 1008.3 0.0
20/04:00am 26.2 30.4 21.0 73 3.5 CALM 0 0 0 0 1008.9 1008.0 0.0
20/03:30am 26.5 30.3 21.0 72 3.6 S 2 6 1 3 1008.8 1007.8 0.0
20/03:00am 26.6 29.0 20.9 71 3.8 S 9 11 5 6 1008.7 1007.7 0.0
20/02:30am 26.7 29.1 20.8 70 3.9 S 9 13 5 7 1008.6 1007.6 0.0
20/02:00am 26.9 28.9 20.7 69 4.1 SW 11 13 6 7 1008.7 1007.7 0.0
20/01:30am 27.2 31.3 20.8 68 4.2 CALM 0 0 0 0 1008.5 1007.5 0.0
20/01:00am 27.2 29.4 20.3 66 4.5 NW 9 13 5 7 1008.6 1007.6 0.0
20/12:30am 27.6 29.4 20.4 65 4.7 NW 11 15 6 8 1008.7 1007.7 0.0
20/12:00am 28.0 29.4 20.3 63 5.1 NW 13 15 7 8 1009.0 1008.1 0.0
 
Date/Time
WST
Temp
°C
App
Temp
°C
Dew
Point
°C
Rel
Hum
%
Delta-T
°C
Wind Press
QNH
hPa
Press
MSL
hPa
Rain since
9am
mm
Dir  Spd
km/h
Gust
km/h
Spd
kts
Gust
kts
19/11:30pm 28.9 30.2 20.1 59 5.8 NNW 13 15 7 8 1009.4 1008.5 0.0
19/11:00pm 29.7 30.0 20.3 57 6.2 NNW 19 30 10 16 1009.5 1008.6 0.0
19/10:30pm 30.1 30.5 19.8 54 6.8 NNW 17 20 9 11 1009.7 1008.8 0.0
19/10:00pm 30.6 28.8 19.6 51 7.2 N 28 33 15 18 1009.8 1008.9 0.0
19/09:30pm 31.5 30.7 20.1 50 7.6 N 24 44 13 24 1009.8 1008.9 0.0
19/09:26pm 32.0 32.2 19.3 47 8.4 NNE 17 44 9 24 1009.7 1008.8 0.0
19/09:00pm 31.6 33.6 19.9 50 7.8 ENE 9 13 5 7 1009.3 1008.4 0.0
19/08:30pm 32.2 36.6 21.4 53 7.3 CALM 0 0 0 0 1008.9 1008.0 0.0
19/08:00pm 32.7 34.9 19.2 44 8.9 SSW 6 7 3 4 1008.5 1007.5 0.0
19/07:30pm 33.3 37.1 20.1 45 8.8 CALM 0 0 0 0 1008.2 1007.2 0.0
19/07:00pm 33.7 37.1 19.4 43 9.5 CALM 0 0 0 0 1007.9 1006.9 0.0
19/06:30pm 34.0 37.2 18.9 41 9.9 CALM 0 0 0 0 1007.5 1006.5 0.0
19/06:00pm 34.5 35.9 17.7 37 10.9 SE 7 9 4 5 1007.0 1006.0 0.0
19/05:30pm 35.1 35.1 17.3 34 11.5 SSE 13 19 7 10 1006.5 1005.5 0.0
19/05:00pm 35.8 35.7 17.0 32 12.1 SSE 13 17 7 9 1006.1 1005.1 0.0
19/04:30pm 36.2 36.1 16.9 32 12.4 SSE 13 19 7 10 1005.8 1004.8 0.0
19/04:00pm 35.9 35.5 17.1 32 12.2 SSE 15 19 8 10 1005.6 1004.6 0.0
19/03:30pm 35.8 35.3 17.0 32 12.1 SSE 15 20 8 11 1005.8 1004.8 0.0
19/03:00pm 36.4 35.7 16.5 30 12.8 SSE 15 22 8 12 1006.1 1005.1 0.0
19/02:30pm 36.6 36.8 17.7 32 12.3 S 13 20 7 11 1006.4 1005.4 0.0
19/02:00pm 37.7 36.8 17.7 31 13.1 SW 19 26 10 14 1006.7 1005.7 0.0
19/01:30pm 36.4 35.2 17.0 31 12.5 SW 19 32 10 17 1007.1 1006.1 0.0
19/01:00pm 36.7 35.8 17.8 32 12.4 SW 19 26 10 14 1007.7 1006.7 0.0
19/12:30pm 35.8 36.1 17.9 34 11.7 SSW 13 22 7 12 1008.4 1007.4 0.0
19/12:00pm 34.3 36.5 20.3 44 9.4 SE 9 15 5 8 1009.2 1008.3 0.0
19/11:30am 32.7 35.0 20.6 49 8.1 SE 9 13 5 7 1009.7 1008.8 0.0
19/11:00am 31.4 34.4 21.3 55 6.8 SE 7 13 4 7 1010.2 1009.3 0.0
19/10:30am 29.5 32.1 21.2 61 5.6 ESE 9 13 5 7 1010.6 1009.7 0.0
19/10:00am 28.5 31.0 21.8 67 4.5 SE 11 15 6 8 1010.7 1009.8 0.0
19/09:30am 28.0 30.4 22.2 70 3.9 SE 13 17 7 9 1011.1 1010.2 0.0
19/09:00am 27.4 29.9 21.7 71 3.8 SSE 11 15 6 8 1011.0 1010.1 2.2
19/08:30am 27.2 30.5 20.8 68 4.2 N 4 9 2 5 1011.3 1010.4 2.2
19/08:00am 26.3 27.8 21.3 74 3.3 NNW 15 20 8 11 1010.8 1009.9 2.2
19/07:30am 25.5 27.1 22.2 82 2.2 NW 17 22 9 12 1010.5 1009.6 2.2
19/07:00am 24.9 27.0 22.4 86 1.7 WNW 15 19 8 10 1010.6 1009.7 2.2
19/06:30am 24.8 28.0 22.3 86 1.7 NW 9 11 5 6 1010.7 1009.8 2.2
19/06:00am 24.5 28.1 22.4 88 1.4 NW 7 11 4 6 1010.6 1009.7 2.2
19/05:30am 24.5 26.6 22.4 88 1.4 W 15 22 8 12 1010.3 1009.4 2.2
19/05:00am 24.4 26.4 22.3 88 1.4 W 15 20 8 11 1010.3 1009.4 2.0
19/04:30am 24.7 27.3 22.0 85 1.8 W 11 17 6 9 1010.0 1009.1 1.2
19/04:00am 24.8 26.1 21.7 83 2.1 WNW 17 24 9 13 1010.0 1009.1 0.8
19/03:30am 25.5 25.9 21.8 80 2.5 NW 22 39 12 21 1009.3 1008.4 0.6
19/03:00am 25.7 24.7 22.0 80 2.5 NW 30 43 16 23 1008.6 1007.6 0.6
19/02:36am 25.9 24.5 22.2 80 2.5 NW 33 52 18 28 1008.2 1007.2 0.6
19/02:30am 26.0 23.6 21.9 78 2.7 NW 37 52 20 28 1008.1 1007.1 0.6
19/02:13am 27.0 26.0 21.3 71 3.8 NW 28 46 15 25 1008.2 1007.2 0.4
19/02:00am 27.4 28.1 21.2 69 4.1 NW 19 26 10 14 1008.4 1007.4 0.4
19/01:30am 27.0 27.4 21.7 73 3.6 NW 22 30 12 16 1008.0 1007.0 0.4
19/01:00am 26.7 27.4 21.5 73 3.5 NW 20 26 11 14 1008.1 1007.1 0.4
19/12:30am 26.6 27.4 21.8 75 3.2 NW 20 26 11 14 1008.5 1007.5 0.4
19/12:00am 26.7 27.8 21.9 75 3.2 NNW 19 22 10 12 1008.6 1007.6 0.4
 
Date/Time
WST
Temp
°C
App
Temp
°C
Dew
Point
°C
Rel
Hum
%
Delta-T
°C
Wind Press
QNH
hPa
Press
MSL
hPa
Rain since
9am
mm
Dir  Spd
km/h
Gust
km/h
Spd
kts
Gust
kts
18/11:30pm 27.8 27.5 21.1 67 4.5 N 24 28 13 15 1009.1 1008.2 0.2
18/11:00pm 31.0 30.5 19.0 48 7.8 N 20 28 11 15 1009.1 1008.2 0.0
18/10:30pm 32.5 34.1 17.9 41 9.4 E 6 11 3 6 1008.1 1007.1 0.0
18/10:00pm 32.4 32.9 17.5 41 9.6 N 11 13 6 7 1007.3 1006.3 0.0
18/09:30pm 32.7 32.2 17.7 40 9.7 N 17 20 9 11 1007.3 1006.3 0.0
18/09:00pm 32.2 32.2 17.3 41 9.6 N 13 17 7 9 1007.2 1006.2 0.0
18/08:30pm 32.9 32.3 16.7 38 10.3 N 15 19 8 10 1006.9 1005.9 0.0
18/08:00pm 33.8 32.6 16.2 35 11.2 NNE 17 24 9 13 1006.7 1005.7 0.0
18/07:30pm 33.6 32.7 16.9 37 10.7 N 17 22 9 12 1006.1 1005.1 0.0
18/07:00pm 34.4 33.3 17.2 36 11.1 N 19 24 10 13 1005.6 1004.6 0.0
18/06:36pm 35.7 35.6 16.9 32 12.1 NNE 13 32 7 17 1005.2 1004.2 0.0
18/06:30pm 36.5 36.8 16.1 29 13.0 NNE 9 11 5 6 1005.0 1004.0 0.0

Other Formats:

Comma delimited format used in spreadsheet applications
http://www.bom.gov.au/fwo/IDW60801/IDW60801.94206.axf

JavaScript Object Notation format (JSON) in row-major order
http://www.bom.gov.au/fwo/IDW60801/IDW60801.94206.json